Time;durP1;ratioP1;P1;durP2;ratioP2;P2;SDS_P1;SDS_P2;PMS_P1;PMS_P2;Temp;Humidity;BMP_temperature;BMP_pressure;BME280_temperature;BME280_humidity;BME280_pressure;Samples;Min_cycle;Max_cycle;Signal;HPM_P1;HPM_P2
2022/04/01 00:00:56;;;;;;;;;1.75;1.00;;;;;7.76;48.31;99976.84;2102062;28;47262;-61
2022/04/01 00:01:56;;;;;;;;;0.50;0.50;;;;;7.75;48.40;99970.72;2104051;28;47736;-61
2022/04/01 00:02:57;;;;;;;;;2.00;2.00;;;;;7.75;47.92;99973.34;2095678;28;47634;-60
2022/04/01 00:03:57;;;;;;;;;1.25;0.50;;;;;7.76;48.19;99983.00;2098434;28;47351;-59
2022/04/01 00:04:58;;;;;;;;;2.00;1.00;;;;;7.75;48.11;99972.44;2103988;28;49450;-61
2022/04/01 00:05:59;;;;;;;;;2.00;1.00;;;;;7.76;48.07;99975.09;2103895;28;47890;-61
2022/04/01 00:06:59;;;;;;;;;1.00;1.00;;;;;7.77;47.70;99978.59;2103970;28;47147;-61
2022/04/01 00:08:00;;;;;;;;;1.75;1.75;;;;;7.76;48.11;99972.44;2096498;28;47631;-60
2022/04/01 00:09:01;;;;;;;;;0.60;0.60;;;;;7.74;47.92;99968.06;2101468;28;47766;-61
2022/04/01 00:10:03;;;;;;;;;1.00;1.00;;;;;7.70;47.90;99962.00;2103935;28;47665;-61
2022/04/01 00:11:04;;;;;;;;;1.00;1.00;;;;;7.67;47.81;99962.94;2095580;28;48432;-61
2022/04/01 00:12:05;;;;;;;;;2.00;1.00;;;;;7.66;47.93;99960.34;2099574;28;47856;-61
2022/04/01 00:13:07;;;;;;;;;1.40;1.40;;;;;7.66;48.02;99958.56;2103903;28;48188;-61
2022/04/01 00:14:08;;;;;;;;;1.80;1.00;;;;;7.65;48.23;99955.97;2102308;28;47907;-61
2022/04/01 00:15:09;;;;;;;;;0.25;0.25;;;;;7.66;47.96;99953.28;2099672;28;47918;-61
2022/04/01 00:16:09;;;;;;;;;2.20;1.00;;;;;7.67;47.82;99946.22;2095600;28;47256;-61
2022/04/01 00:17:10;;;;;;;;;0.25;0.25;;;;;7.65;47.73;99956.81;2098375;28;48212;-61
2022/04/01 00:18:11;;;;;;;;;1.00;1.00;;;;;7.64;48.05;99951.59;2087889;28;47720;-61
2022/04/01 00:19:12;;;;;;;;;1.00;1.00;;;;;7.64;47.84;99959.50;2086149;28;46209;-61
2022/04/01 00:20:13;;;;;;;;;0.00;0.00;;;;;7.63;47.88;99953.34;2100999;28;47923;-60
2022/04/01 00:21:14;;;;;;;;;2.40;1.40;;;;;7.62;48.07;99967.47;2103601;28;47531;-62
2022/04/01 00:22:14;;;;;;;;;1.00;0.75;;;;;7.59;47.93;99948.16;2104133;28;47794;-61
2022/04/01 00:23:15;;;;;;;;;0.00;0.00;;;;;7.61;47.97;99962.19;2103040;28;48014;-64
2022/04/01 00:24:16;;;;;;;;;2.40;1.00;;;;;7.61;48.06;99959.56;2101608;28;48583;-62
2022/04/01 00:25:17;;;;;;;;;0.50;0.50;;;;;7.60;47.88;99958.69;2103091;28;47473;-61
2022/04/01 00:26:18;;;;;;;;;0.80;0.80;;;;;7.60;47.92;99961.31;2096261;28;47800;-61
2022/04/01 00:27:18;;;;;;;;;1.25;1.25;;;;;7.60;47.69;99968.38;2095464;28;46819;-62
2022/04/01 00:28:19;;;;;;;;;0.00;0.00;;;;;7.59;48.08;99964.88;2100532;28;47438;-62
2022/04/01 00:29:20;;;;;;;;;1.75;1.00;;;;;7.58;47.93;99960.50;2104119;28;47947;-61
2022/04/01 00:30:21;;;;;;;;;0.80;0.40;;;;;7.59;47.84;99961.34;2103964;28;47396;-61
2022/04/01 00:31:21;;;;;;;;;1.00;1.00;;;;;7.58;48.16;99952.56;2102778;28;47791;-59
2022/04/01 00:32:22;;;;;;;;;0.00;0.00;;;;;7.59;47.76;99962.22;2103218;28;47522;-61
2022/04/01 00:33:22;;;;;;;;;0.50;0.50;;;;;7.58;47.95;99955.22;2104050;28;48094;-62
2022/04/01 00:34:23;;;;;;;;;0.50;0.50;;;;;7.59;48.07;99956.06;2103645;28;47841;-62
2022/04/01 00:35:23;;;;;;;;;2.00;0.75;;;;;7.60;48.21;99963.97;2103889;28;47659;-62
2022/04/01 00:36:23;;;;;;;;;1.25;1.25;;;;;7.62;48.13;99963.94;2094627;28;47809;-61
2022/04/01 00:37:24;;;;;;;;;1.50;1.00;;;;;7.64;48.23;99951.59;2095284;28;45553;-62
2022/04/01 00:38:25;;;;;;;;;2.50;2.50;;;;;7.67;48.10;99956.78;2077475;28;47525;-62
2022/04/01 00:39:29;;;;;;;;;0.50;0.50;;;;;7.68;48.14;99946.19;2082612;28;47693;-62
2022/04/01 00:40:30;;;;;;;;;2.75;1.00;;;;;7.70;48.09;99950.56;2098503;28;46700;-62
2022/04/01 00:41:30;;;;;;;;;1.75;1.00;;;;;7.71;47.82;99949.66;2086991;28;47742;-59
2022/04/01 00:42:31;;;;;;;;;0.00;0.00;;;;;7.73;47.86;99945.22;2084898;28;47666;-63
2022/04/01 00:43:34;;;;;;;;;0.00;0.00;;;;;7.74;47.86;99949.59;2102117;28;47866;-60
2022/04/01 00:44:37;;;;;;;;;0.80;0.40;;;;;7.72;47.98;99949.63;2102884;28;48295;-63
2022/04/01 00:45:38;;;;;;;;;1.40;1.40;;;;;7.73;48.09;99939.94;2101736;28;47623;-62
2022/04/01 00:46:42;;;;;;;;;1.00;1.00;;;;;7.72;47.97;99928.50;2096877;28;47047;-63
2022/04/01 00:47:43;;;;;;;;;0.60;0.60;;;;;7.73;47.76;99942.56;2096937;28;48308;-62
2022/04/01 00:48:43;;;;;;;;;3.25;2.00;;;;;7.71;47.92;99936.47;2099723;28;46752;-60
2022/04/01 00:49:45;;;;;;;;;1.75;1.75;;;;;7.71;47.81;99926.75;2102615;28;48156;-62
2022/04/01 00:50:46;;;;;;;;;0.40;0.40;;;;;7.70;47.94;99940.88;2103473;28;47864;-62
2022/04/01 00:51:48;;;;;;;;;1.00;1.00;;;;;7.71;48.18;99921.47;2103015;28;48248;-60
2022/04/01 00:52:49;;;;;;;;;2.80;1.60;;;;;7.71;48.28;99936.47;2102953;28;47844;-61
2022/04/01 00:53:50;;;;;;;;;0.00;0.00;;;;;7.72;47.99;99938.19;2103439;28;47031;-58
2022/04/01 00:54:51;;;;;;;;;0.25;0.00;;;;;7.70;48.03;99935.59;2094061;28;47133;-63
2022/04/01 00:55:52;;;;;;;;;2.20;1.20;;;;;7.68;48.13;99934.75;2094509;28;47559;-61
2022/04/01 00:56:54;;;;;;;;;0.75;0.75;;;;;7.66;47.87;99929.53;2098715;28;47301;-60
2022/04/01 00:57:55;;;;;;;;;1.00;1.00;;;;;7.65;48.12;99919.00;2097862;28;47845;-61
2022/04/01 00:58:56;;;;;;;;;0.40;0.40;;;;;7.63;47.89;99921.66;2099590;28;47933;-61
2022/04/01 00:59:57;;;;;;;;;0.00;0.00;;;;;7.62;48.16;99922.56;2103591;28;47564;-62
2022/04/01 01:00:57;;;;;;;;;1.25;1.25;;;;;7.61;48.28;99923.44;2102422;28;48072;-62
2022/04/01 01:01:58;;;;;;;;;2.00;1.00;;;;;7.60;48.37;99923.50;2103572;28;47689;-59
2022/04/01 01:02:59;;;;;;;;;0.00;0.00;;;;;7.61;48.18;99910.25;2100631;28;47677;-62
2022/04/01 01:04:04;;;;;;;;;0.00;0.00;;;;;7.62;48.15;99912.00;2104023;28;47717;-63
2022/04/01 01:05:04;;;;;;;;;1.00;0.00;;;;;7.63;48.06;99918.16;2076686;28;46749;-60
2022/04/01 01:06:07;;;;;;;;;1.25;0.25;;;;;7.63;48.39;99903.19;2076853;28;47948;-63
2022/04/01 01:07:09;;;;;;;;;0.75;0.00;;;;;7.65;48.15;99904.00;2103707;28;47595;-62
2022/04/01 01:08:09;;;;;;;;;2.00;1.00;;;;;7.67;48.31;99901.34;2089154;28;48098;-57
2022/04/01 01:09:12;;;;;;;;;0.25;0.25;;;;;7.67;48.28;99901.34;2086782;28;47533;-60
2022/04/01 01:10:14;;;;;;;;;1.60;1.60;;;;;7.66;48.17;99899.59;2103617;28;48206;-62
2022/04/01 01:11:15;;;;;;;;;1.60;1.60;;;;;7.68;48.57;99908.34;2099791;27;47988;-63
2022/04/01 01:12:16;;;;;;;;;1.00;1.00;;;;;7.69;48.30;99902.16;2097248;27;47838;-62
2022/04/01 01:13:17;;;;;;;;;0.80;0.00;;;;;7.71;48.28;99899.47;2103212;28;47537;-63
2022/04/01 01:14:26;;;;;;;;;1.00;1.00;;;;;7.69;48.58;99894.25;2103606;27;47467;-61
2022/04/01 01:15:27;;;;;;;;;1.60;1.60;;;;;7.68;48.27;99885.44;2101929;27;48159;-64
2022/04/01 01:16:28;;;;;;;;;1.00;1.00;;;;;7.69;48.27;99891.59;2103648;27;47625;-62
2022/04/01 01:17:28;;;;;;;;;1.00;1.00;;;;;7.69;48.46;99899.53;2097793;27;48093;-62
2022/04/01 01:18:29;;;;;;;;;0.75;0.75;;;;;7.69;48.55;99888.97;2097299;27;47622;-62
2022/04/01 01:19:30;;;;;;;;;2.00;1.00;;;;;7.70;48.33;99880.13;2103629;27;45606;-61
2022/04/01 01:20:30;;;;;;;;;0.20;0.20;;;;;7.71;48.37;99883.63;2103832;27;47452;-61
2022/04/01 01:21:31;;;;;;;;;2.00;2.00;;;;;7.70;48.34;99893.34;2103686;27;48180;-62
2022/04/01 01:22:32;;;;;;;;;0.60;0.00;;;;;7.70;48.49;99895.09;2101705;27;48050;-62
2022/04/01 01:23:32;;;;;;;;;1.00;1.00;;;;;7.72;48.34;99893.28;2103899;27;47457;-61
2022/04/01 01:24:35;;;;;;;;;2.00;1.00;;;;;7.73;48.51;99893.25;2100390;27;47771;-61
2022/04/01 01:25:36;;;;;;;;;1.80;0.20;;;;;7.73;48.58;99901.19;2103496;27;47735;-61
2022/04/01 01:26:38;;;;;;;;;2.00;2.00;;;;;7.75;48.40;99887.94;2097259;27;47695;-62
2022/04/01 01:27:39;;;;;;;;;0.00;0.00;;;;;7.75;48.48;99890.56;2103542;27;47536;-61
2022/04/01 01:28:40;;;;;;;;;0.00;0.00;;;;;7.74;48.41;99878.28;2103519;27;47391;-61
2022/04/01 01:29:42;;;;;;;;;0.00;0.00;;;;;7.74;48.43;99878.28;2096214;27;46883;-61
2022/04/01 01:30:42;;;;;;;;;0.00;0.00;;;;;7.75;48.49;99875.63;2102419;27;47571;-61
2022/04/01 01:31:43;;;;;;;;;0.50;0.50;;;;;7.75;48.62;99875.63;2103896;27;47686;-62
2022/04/01 01:32:43;;;;;;;;;0.50;0.25;;;;;7.74;48.50;99875.63;2101611;27;48011;-57
2022/04/01 01:33:44;;;;;;;;;1.00;1.00;;;;;7.75;48.55;99869.44;2102547;27;47285;-61
2022/04/01 01:34:44;;;;;;;;;0.25;0.25;;;;;7.76;48.53;99863.28;2097308;27;47848;-61
2022/04/01 01:35:44;;;;;;;;;1.25;0.50;;;;;7.76;48.69;99874.72;2103896;27;47444;-61
2022/04/01 01:36:45;;;;;;;;;0.25;0.25;;;;;7.74;48.59;99865.06;2102781;27;47398;-62
2022/04/01 01:37:45;;;;;;;;;1.00;1.00;;;;;7.73;48.37;99868.63;2103421;27;47812;-60
2022/04/01 01:38:46;;;;;;;;;0.00;0.00;;;;;7.73;48.96;99871.25;2103355;27;47487;-61
2022/04/01 01:39:47;;;;;;;;;2.00;2.00;;;;;7.71;48.92;99870.44;2103049;27;47440;-60
2022/04/01 01:40:47;;;;;;;;;2.00;2.00;;;;;7.70;48.99;99866.06;2099369;27;46863;-61
2022/04/01 01:41:49;;;;;;;;;1.00;0.00;;;;;7.68;48.88;99858.19;2099621;27;47421;-59
2022/04/01 01:42:50;;;;;;;;;1.00;1.00;;;;;7.70;49.08;99852.84;2101299;27;47330;-60
2022/04/01 01:43:50;;;;;;;;;1.00;1.00;;;;;7.69;48.99;99862.56;2098944;28;48204;-62
2022/04/01 01:44:50;;;;;;;;;1.50;1.50;;;;;7.68;49.09;99853.75;2094978;28;47586;-62
2022/04/01 01:45:51;;;;;;;;;1.75;1.00;;;;;7.69;48.95;99852.00;2101336;27;47366;-61
2022/04/01 01:46:52;;;;;;;;;0.75;0.75;;;;;7.70;49.01;99848.44;2098330;27;47522;-60
2022/04/01 01:47:53;;;;;;;;;0.00;0.00;;;;;7.70;49.59;99859.00;2103610;28;48106;-61
2022/04/01 01:48:53;;;;;;;;;1.00;1.00;;;;;7.69;49.48;99852.00;2103634;28;47386;-60
2022/04/01 01:55:10;;;;;;;;;1.00;0.40;;;;;7.69;50.17;99846.72;2100298;28;47612;-60
2022/04/01 01:56:10;;;;;;;;;0.00;0.00;;;;;7.67;50.22;99828.25;2098780;28;48023;-59
2022/04/01 01:57:16;;;;;;;;;1.00;1.00;;;;;7.67;49.96;99836.19;2101505;28;47644;-60
2022/04/01 01:58:18;;;;;;;;;1.40;0.60;;;;;7.64;50.30;99833.63;2099563;28;48323;-61
2022/04/01 01:59:18;;;;;;;;;1.00;1.00;;;;;7.64;50.21;99836.25;2103624;28;47475;-60
2022/04/01 02:00:22;;;;;;;;;1.00;1.00;;;;;7.64;50.32;99832.75;2100685;28;46471;-61
2022/04/01 02:01:22;;;;;;;;;0.00;0.00;;;;;7.63;50.26;99831.03;2077055;28;48046;-58
2022/04/01 02:02:23;;;;;;;;;0.00;0.00;;;;;7.62;50.29;99821.34;2074710;28;47424;-61
2022/04/01 02:03:23;;;;;;;;;1.75;0.00;;;;;7.60;50.46;99823.16;2104098;28;47714;-58
2022/04/01 02:04:24;;;;;;;;;1.00;1.00;;;;;7.59;50.39;99829.34;2100071;28;47811;-62
2022/04/01 02:05:25;;;;;;;;;2.00;1.00;;;;;7.58;50.32;99817.03;2104837;28;47674;-60
2022/04/01 02:06:25;;;;;;;;;0.50;0.25;;;;;7.58;50.61;99835.53;2100113;27;48015;-62
2022/04/01 02:07:25;;;;;;;;;0.00;0.00;;;;;7.58;50.58;99839.03;2101379;28;47853;-60
2022/04/01 02:08:26;;;;;;;;;2.00;2.00;;;;;7.58;50.96;99830.25;2104611;28;47547;-60
2022/04/01 02:09:26;;;;;;;;;3.33;2.00;;;;;7.57;50.36;99820.59;2105008;28;47533;-62
2022/04/01 02:10:27;;;;;;;;;1.00;1.00;;;;;7.55;50.29;99812.72;2100640;28;47498;-59
2022/04/01 02:11:27;;;;;;;;;0.00;0.00;;;;;7.55;50.15;99827.69;2097563;28;47457;-60
2022/04/01 02:12:30;;;;;;;;;1.00;1.00;;;;;7.55;50.49;99827.69;2103243;28;47888;-61
2022/04/01 02:13:31;;;;;;;;;1.80;1.00;;;;;7.56;50.48;99829.41;2102199;28;48036;-61
2022/04/01 02:14:33;;;;;;;;;0.40;0.40;;;;;7.56;50.52;99821.50;2100766;28;47809;-62
2022/04/01 02:15:33;;;;;;;;;0.00;0.00;;;;;7.56;50.57;99816.22;2105299;28;48024;-59
2022/04/01 02:16:34;;;;;;;;;0.75;0.75;;;;;7.56;50.52;99818.84;2099025;28;47160;-60
2022/04/01 02:17:34;;;;;;;;;0.50;0.50;;;;;7.55;50.59;99825.91;2099177;28;47439;-61
2022/04/01 02:18:34;;;;;;;;;3.00;1.00;;;;;7.55;50.54;99812.72;2102152;28;47761;-61
2022/04/01 02:19:35;;;;;;;;;1.00;1.00;;;;;7.55;50.76;99823.28;2102631;28;47495;-61
2022/04/01 02:20:35;;;;;;;;;0.25;0.25;;;;;7.56;50.73;99826.78;2104345;28;47514;-61
2022/04/01 02:21:36;;;;;;;;;1.00;0.75;;;;;7.56;50.59;99821.50;2103801;28;47891;-60
2022/04/01 02:22:37;;;;;;;;;2.00;0.80;;;;;7.56;50.95;99826.78;2104803;28;47553;-61
2022/04/01 02:23:40;;;;;;;;;2.40;1.60;;;;;7.55;50.95;99810.06;2104654;28;47675;-61
2022/04/01 02:24:41;;;;;;;;;1.00;1.00;;;;;7.55;50.91;99818.00;2104940;28;46472;-61
2022/04/01 02:25:42;;;;;;;;;1.00;1.00;;;;;7.56;50.98;99808.31;2104300;27;47272;-59
2022/04/01 02:26:45;;;;;;;;;1.40;1.40;;;;;7.56;51.12;99813.59;2104081;28;48593;-62
2022/04/01 02:27:46;;;;;;;;;1.00;1.00;;;;;7.55;51.10;99814.50;2103446;27;47303;-63
2022/04/01 02:28:47;;;;;;;;;0.75;0.75;;;;;7.54;51.27;99808.34;2096279;28;47246;-62
2022/04/01 02:29:47;;;;;;;;;1.25;1.00;;;;;7.54;51.32;99810.97;2097261;28;47494;-62
2022/04/01 02:30:47;;;;;;;;;2.00;2.00;;;;;7.54;51.48;99804.84;2098717;27;47313;-60
2022/04/01 02:31:52;;;;;;;;;0.75;0.50;;;;;7.52;51.69;99804.88;2093054;28;48102;-60
2022/04/01 02:32:52;;;;;;;;;4.20;3.00;;;;;7.51;51.63;99808.41;2096214;28;48462;-61
2022/04/01 02:33:53;;;;;;;;;3.00;1.00;;;;;7.50;51.56;99803.19;2103848;27;47354;-61
2022/04/01 02:34:53;;;;;;;;;2.75;1.00;;;;;7.50;51.57;99808.47;2094554;28;47887;-61
2022/04/01 02:35:57;;;;;;;;;1.00;1.00;;;;;7.48;51.90;99800.53;2094899;28;47511;-61
2022/04/01 02:36:59;;;;;;;;;2.00;2.00;;;;;7.49;52.08;99804.06;2102391;28;47454;-60
2022/04/01 02:38:01;;;;;;;;;4.00;2.00;;;;;7.49;52.22;99806.69;2102771;28;48609;-61
2022/04/01 02:39:01;;;;;;;;;1.20;1.20;;;;;7.48;52.41;99803.19;2102710;28;47772;-61
2022/04/01 02:40:04;;;;;;;;;2.00;2.00;;;;;7.48;52.37;99795.28;2104887;28;46398;-62
2022/04/01 02:41:06;;;;;;;;;2.00;2.00;;;;;7.49;52.75;99801.41;2103083;28;47726;-61
2022/04/01 02:42:06;;;;;;;;;0.60;0.60;;;;;7.48;52.61;99797.03;2100615;28;48058;-61
2022/04/01 02:43:07;;;;;;;;;3.00;3.00;;;;;7.47;52.53;99798.81;2097154;28;47518;-61
2022/04/01 02:44:14;;;;;;;;;5.25;3.00;;;;;7.46;52.59;99804.13;2103953;28;48104;-62
2022/04/01 02:45:14;;;;;;;;;2.00;2.00;;;;;7.45;52.49;99798.00;2096420;28;47636;-61
2022/04/01 02:46:15;;;;;;;;;3.00;3.00;;;;;7.46;52.88;99789.16;2104893;28;47685;-62
2022/04/01 02:47:15;;;;;;;;;1.50;1.50;;;;;7.47;52.83;99790.03;2103379;28;48281;-60
2022/04/01 02:48:17;;;;;;;;;3.25;2.00;;;;;7.46;53.00;99797.09;2104300;28;47411;-63
2022/04/01 02:49:19;;;;;;;;;2.40;2.40;;;;;7.47;52.83;99796.19;2099250;28;47524;-63
2022/04/01 02:50:20;;;;;;;;;2.60;2.60;;;;;7.48;52.76;99802.31;2102521;28;47409;-62
2022/04/01 02:51:21;;;;;;;;;1.50;1.50;;;;;7.48;52.85;99789.13;2104670;28;47617;-62
2022/04/01 02:52:21;;;;;;;;;2.60;2.00;;;;;7.48;52.81;99791.75;2105029;27;47751;-62
2022/04/01 02:53:22;;;;;;;;;1.50;1.50;;;;;7.47;53.08;99804.09;2104036;28;47950;-61
2022/04/01 02:54:22;;;;;;;;;2.00;1.75;;;;;7.47;53.13;99790.91;2105015;28;47020;-62
2022/04/01 02:55:22;;;;;;;;;1.50;1.50;;;;;7.47;53.26;99790.03;2086849;28;47525;-61
2022/04/01 02:56:23;;;;;;;;;1.00;1.00;;;;;7.47;53.12;99792.66;2086761;28;47790;-61
2022/04/01 02:57:23;;;;;;;;;2.00;2.00;;;;;7.48;53.53;99797.03;2104905;28;47728;-61
2022/04/01 02:58:24;;;;;;;;;1.75;1.75;;;;;7.45;53.35;99782.16;2101600;28;48019;-60
2022/04/01 02:59:25;;;;;;;;;0.50;0.50;;;;;7.43;53.13;99789.25;2101332;28;47454;-61
2022/04/01 03:00:26;;;;;;;;;1.40;1.40;;;;;7.40;53.54;99789.31;2102764;27;47692;-61
2022/04/01 03:01:28;;;;;;;;;2.25;2.00;;;;;7.39;53.49;99798.16;2104702;28;47447;-60
2022/04/01 03:02:28;;;;;;;;;1.00;1.00;;;;;7.38;53.54;99786.72;2099821;28;48062;-62
2022/04/01 03:03:29;;;;;;;;;2.25;1.00;;;;;7.35;53.55;99777.97;2104565;28;48007;-60
2022/04/01 03:04:29;;;;;;;;;1.50;1.00;;;;;7.33;53.48;99788.59;2102385;28;47547;-62
2022/04/01 03:05:32;;;;;;;;;5.25;4.00;;;;;7.31;53.71;99782.47;2104313;28;47080;-63
2022/04/01 03:06:33;;;;;;;;;2.80;2.80;;;;;7.29;54.38;99781.66;2104740;28;47795;-62
2022/04/01 03:07:33;;;;;;;;;2.00;2.00;;;;;7.27;54.04;99783.47;2104671;28;47818;-60
2022/04/01 03:08:34;;;;;;;;;1.00;1.00;;;;;7.26;54.13;99779.09;2104302;28;47526;-61
2022/04/01 03:09:34;;;;;;;;;1.25;1.25;;;;;7.25;53.87;99787.91;2104356;28;48044;-60
2022/04/01 03:10:36;;;;;;;;;2.00;2.00;;;;;7.26;54.03;99773.81;2096549;28;47349;-60
2022/04/01 03:11:37;;;;;;;;;1.80;1.80;;;;;7.26;54.06;99770.31;2102649;27;47559;-61
2022/04/01 03:12:38;;;;;;;;;0.00;0.00;;;;;7.24;53.77;99765.06;2104096;28;47570;-62
2022/04/01 03:13:38;;;;;;;;;1.00;1.00;;;;;7.22;53.89;99779.19;2096673;28;47969;-61
2022/04/01 03:14:39;;;;;;;;;1.50;1.50;;;;;7.21;54.19;99775.66;2102297;28;47570;-62
2022/04/01 03:15:39;;;;;;;;;2.00;2.00;;;;;7.19;54.02;99766.94;2104480;28;47525;-60
2022/04/01 03:16:40;;;;;;;;;1.25;1.00;;;;;7.19;54.41;99764.28;2100383;28;48256;-60
2022/04/01 03:17:40;;;;;;;;;2.00;2.00;;;;;7.19;54.39;99768.69;2099768;28;47431;-61
2022/04/01 03:18:41;;;;;;;;;2.00;2.00;;;;;7.18;54.39;99762.56;2102856;28;47421;-62
2022/04/01 03:19:41;;;;;;;;;2.50;1.00;;;;;7.18;54.56;99764.34;2102704;28;47877;-59
2022/04/01 03:20:45;;;;;;;;;1.00;1.00;;;;;7.17;54.45;99745.00;2104547;28;47552;-60
2022/04/01 03:21:45;;;;;;;;;2.00;2.00;;;;;7.15;54.29;99749.44;2097010;28;47762;-60
2022/04/01 03:22:46;;;;;;;;;2.00;2.00;;;;;7.15;54.25;99751.22;2103550;28;47634;-62
2022/04/01 03:23:47;;;;;;;;;2.00;2.00;;;;;7.15;54.16;99761.78;2102954;28;47465;-61
2022/04/01 03:24:47;;;;;;;;;1.00;1.00;;;;;7.12;54.15;99765.34;2094766;28;47758;-62
2022/04/01 03:25:49;;;;;;;;;2.00;2.00;;;;;7.11;54.60;99766.22;2094892;28;47494;-61
2022/04/01 03:26:49;;;;;;;;;1.60;1.20;;;;;7.09;54.71;99761.00;2104815;28;47186;-60
2022/04/01 03:27:50;;;;;;;;;2.00;1.00;;;;;7.07;54.54;99751.38;2102085;28;48024;-61
2022/04/01 03:28:51;;;;;;;;;2.00;2.00;;;;;7.06;55.11;99761.06;2103975;28;47716;-63
2022/04/01 03:29:51;;;;;;;;;3.00;1.50;;;;;7.05;54.81;99761.09;2103305;28;47768;-61
2022/04/01 03:30:52;;;;;;;;;0.00;0.00;;;;;7.03;55.10;99757.63;2104945;28;47845;-62
2022/04/01 03:31:52;;;;;;;;;3.00;1.25;;;;;7.04;54.79;99764.66;2097427;28;47935;-63
2022/04/01 03:32:52;;;;;;;;;4.50;2.25;;;;;7.05;55.12;99759.34;2103470;28;47522;-62
2022/04/01 03:33:53;;;;;;;;;1.25;1.25;;;;;7.05;55.35;99754.06;2104607;28;48083;-62
2022/04/01 03:34:53;;;;;;;;;0.75;0.75;;;;;7.05;55.28;99759.34;2097979;28;47769;-62
2022/04/01 03:35:53;;;;;;;;;2.00;2.00;;;;;7.05;55.27;99761.97;2103467;27;47329;-62
2022/04/01 03:36:54;;;;;;;;;2.00;2.00;;;;;7.04;54.65;99765.50;2099969;28;46496;-61
2022/04/01 03:37:55;;;;;;;;;1.80;1.80;;;;;7.04;54.96;99754.97;2104558;28;47802;-62
2022/04/01 03:38:56;;;;;;;;;0.00;0.00;;;;;7.04;55.06;99767.28;2099953;28;47800;-62
2022/04/01 03:39:58;;;;;;;;;1.00;1.00;;;;;7.04;54.91;99764.66;2096482;28;47371;-62
2022/04/01 03:41:00;;;;;;;;;2.60;2.60;;;;;7.02;55.22;99759.41;2104057;28;47715;-61
2022/04/01 03:42:01;;;;;;;;;3.40;1.60;;;;;7.01;55.09;99756.81;2101692;28;47368;-61
2022/04/01 03:43:02;;;;;;;;;1.00;1.00;;;;;7.00;55.26;99760.34;2096407;28;48149;-63
2022/04/01 03:44:03;;;;;;;;;1.75;1.75;;;;;7.01;54.88;99751.53;2092441;28;47270;-61
2022/04/01 03:45:06;;;;;;;;;1.20;1.20;;;;;7.00;55.04;99755.06;2094570;28;48082;-60
2022/04/01 03:46:10;;;;;;;;;2.20;1.20;;;;;6.99;55.28;99743.66;2104480;28;47064;-62
2022/04/01 03:47:12;;;;;;;;;1.80;1.80;;;;;6.99;55.35;99746.28;2104347;28;47861;-63
2022/04/01 03:48:27;;;;;;;;;1.00;1.00;;;;;6.98;55.25;99752.44;2103721;28;47955;-62
2022/04/01 03:49:32;;;;;;;;;1.00;1.00;;;;;6.98;55.54;99749.81;2096377;28;47742;-61
2022/04/01 03:50:34;;;;;;;;;2.20;2.20;;;;;6.99;55.42;99748.06;2096179;28;47468;-63
2022/04/01 03:51:38;;;;;;;;;2.40;1.80;;;;;6.99;55.18;99751.56;2100211;28;47458;-61
2022/04/01 03:52:38;;;;;;;;;2.00;1.60;;;;;6.98;55.23;99748.94;2104075;28;47412;-63
2022/04/01 03:53:41;;;;;;;;;2.50;1.50;;;;;6.97;55.36;99755.97;2104329;28;47752;-62
2022/04/01 03:54:44;;;;;;;;;1.80;1.80;;;;;6.97;55.63;99755.13;2104023;28;47879;-63
2022/04/01 03:55:47;;;;;;;;;1.60;1.60;;;;;6.96;55.23;99741.06;2096669;28;47784;-59
2022/04/01 03:56:58;;;;;;;;;2.60;1.60;;;;;6.96;55.68;99746.34;2102736;28;47602;-61
2022/04/01 03:58:10;;;;;;;;;2.00;2.00;;;;;6.97;55.38;99742.78;2104630;28;48039;-61
2022/04/01 03:59:12;;;;;;;;;1.00;1.00;;;;;6.97;55.41;99736.66;2090021;28;47506;-62
2022/04/01 04:00:13;;;;;;;;;1.00;1.00;;;;;6.97;55.60;99745.44;2096085;28;47476;-61
2022/04/01 04:01:13;;;;;;;;;2.00;2.00;;;;;6.97;55.03;99741.94;2102844;28;47951;-62
2022/04/01 04:02:14;;;;;;;;;0.75;0.75;;;;;6.95;55.28;99741.09;2103810;28;47476;-63
2022/04/01 04:03:14;;;;;;;;;2.00;1.00;;;;;6.96;55.27;99750.75;2104055;28;47234;-61
2022/04/01 04:04:15;;;;;;;;;1.25;1.25;;;;;6.94;55.22;99744.66;2104278;28;47849;-63
2022/04/01 04:05:18;;;;;;;;;3.00;1.80;;;;;6.95;55.41;99749.00;2102745;28;47906;-63
2022/04/01 04:06:19;;;;;;;;;1.00;1.00;;;;;6.94;55.45;99745.50;2096227;28;47955;-62
2022/04/01 04:07:20;;;;;;;;;1.60;1.60;;;;;6.94;55.26;99734.97;2096444;28;47516;-59
2022/04/01 04:08:26;;;;;;;;;2.00;1.00;;;;;6.95;55.10;99744.59;2101802;28;46651;-60
2022/04/01 04:09:28;;;;;;;;;1.00;1.00;;;;;6.96;55.47;99753.38;2102243;28;48065;-63
2022/04/01 04:10:30;;;;;;;;;1.00;0.00;;;;;6.97;55.22;99755.13;2094324;28;47763;-60
2022/04/01 04:11:33;;;;;;;;;1.00;1.00;;;;;6.97;55.56;99749.84;2080513;28;47617;-62
2022/04/01 04:12:35;;;;;;;;;0.20;0.20;;;;;6.99;55.37;99759.47;2089376;28;48043;-62
2022/04/01 04:13:37;;;;;;;;;1.00;1.00;;;;;6.99;55.54;99751.56;2103274;28;48414;-61
2022/04/01 04:14:39;;;;;;;;;1.60;1.60;;;;;6.99;55.57;99748.94;2104297;28;47385;-62
2022/04/01 04:16:08;;;;;;;;;2.00;2.00;;;;;7.00;55.58;99749.81;2103211;28;47271;-62
2022/04/01 04:17:14;;;;;;;;;0.40;0.40;;;;;6.99;55.30;99756.84;2100416;28;48113;-62
2022/04/01 04:18:16;;;;;;;;;0.80;0.80;;;;;6.97;55.70;99750.72;2096255;28;47441;-63
2022/04/01 04:19:32;;;;;;;;;1.20;1.20;;;;;6.97;55.35;99749.84;2098597;28;47739;-62
2022/04/01 04:20:35;;;;;;;;;1.00;1.00;;;;;6.98;55.76;99755.09;2102493;28;48349;-62
2022/04/01 04:22:04;;;;;;;;;1.40;1.00;;;;;7.00;55.54;99749.81;2102690;28;47632;-60
2022/04/01 04:23:24;;;;;;;;;1.00;1.00;;;;;7.01;55.38;99741.84;2104160;28;48127;-63
2022/04/01 04:24:38;;;;;;;;;0.60;0.60;;;;;7.04;55.51;99751.47;2095942;28;47625;-61
2022/04/01 04:25:39;;;;;;;;;1.60;1.60;;;;;7.05;55.48;99759.34;2103100;27;48171;-62
2022/04/01 04:26:51;;;;;;;;;1.00;1.00;;;;;7.07;55.30;99749.59;2097732;28;47881;-63
2022/04/01 04:28:00;;;;;;;;;1.00;1.00;;;;;7.07;55.38;99746.97;2104298;28;48284;-61
2022/04/01 04:29:12;;;;;;;;;1.00;1.00;;;;;7.09;55.34;99755.72;2098549;28;47920;-61
2022/04/01 04:30:13;;;;;;;;;1.00;1.00;;;;;7.09;55.38;99753.06;2102015;28;47479;-59
2022/04/01 04:31:14;;;;;;;;;1.25;1.25;;;;;7.09;55.43;99755.72;2103030;28;47513;-60
2022/04/01 04:32:27;;;;;;;;;1.40;1.40;;;;;7.06;55.50;99747.88;2095543;28;47871;-60
2022/04/01 04:33:49;;;;;;;;;2.00;2.00;;;;;7.07;55.24;99749.59;2094371;28;47766;-61
2022/04/01 04:34:51;;;;;;;;;1.00;1.00;;;;;7.08;55.33;99753.09;2087924;28;47911;-62
2022/04/01 04:35:51;;;;;;;;;2.00;2.00;;;;;7.08;55.79;99746.06;2086740;28;48180;-60
2022/04/01 04:36:57;;;;;;;;;1.00;1.00;;;;;7.11;55.44;99758.31;2094561;28;48009;-61
2022/04/01 04:37:58;;;;;;;;;1.40;1.00;;;;;7.11;55.44;99747.75;2104285;28;48160;-61
2022/04/01 04:39:03;;;;;;;;;1.60;1.60;;;;;7.16;55.22;99750.31;2104171;28;47648;-61
2022/04/01 04:40:05;;;;;;;;;1.00;1.00;;;;;7.16;55.10;99759.09;2098165;28;48559;-61
2022/04/01 04:41:10;;;;;;;;;1.80;1.00;;;;;7.17;55.01;99754.69;2084098;28;47846;-61
2022/04/01 04:42:15;;;;;;;;;4.60;0.60;;;;;7.18;55.44;99761.69;2086285;28;47815;-62
2022/04/01 04:43:18;;;;;;;;;1.00;1.00;;;;;7.19;55.14;99755.50;2100717;28;48622;-63
2022/04/01 04:44:24;;;;;;;;;1.80;1.80;;;;;7.18;54.78;99765.19;2102921;28;47494;-60
2022/04/01 04:45:26;;;;;;;;;1.60;1.00;;;;;7.18;54.99;99751.13;2101638;28;47330;-61
2022/04/01 04:46:27;;;;;;;;;1.20;1.20;;;;;7.18;54.83;99761.69;2103058;28;47655;-62
2022/04/01 04:47:29;;;;;;;;;1.00;1.00;;;;;7.17;54.92;99768.75;2095566;28;48053;-63
2022/04/01 04:48:35;;;;;;;;;1.40;1.40;;;;;7.17;55.10;99760.81;2099791;28;47579;-62
2022/04/01 04:49:36;;;;;;;;;1.20;1.20;;;;;7.18;54.92;99757.28;2103704;28;47883;-63
2022/04/01 04:50:37;;;;;;;;;1.00;1.00;;;;;7.19;54.86;99763.41;2100154;28;47497;-62
2022/04/01 04:51:38;;;;;;;;;2.00;2.00;;;;;7.20;54.93;99766.03;2100979;28;47749;-61
2022/04/01 04:52:39;;;;;;;;;2.00;2.00;;;;;7.20;54.89;99768.66;2099228;28;47880;-60
2022/04/01 04:53:41;;;;;;;;;2.40;2.40;;;;;7.23;55.13;99775.63;2098298;28;48056;-61
2022/04/01 04:54:41;;;;;;;;;1.00;1.00;;;;;7.22;54.57;99774.75;2099960;28;48025;-62
2022/04/01 04:55:44;;;;;;;;;1.50;1.50;;;;;7.23;54.63;99770.34;2096060;28;47295;-62
2022/04/01 04:56:45;;;;;;;;;2.00;2.00;;;;;7.23;55.09;99781.78;2103563;28;47725;-64
2022/04/01 04:57:47;;;;;;;;;1.25;1.25;;;;;7.25;54.52;99765.94;2091316;28;47634;-64
2022/04/01 04:58:48;;;;;;;;;1.40;1.40;;;;;7.26;54.80;99770.31;2094319;28;48140;-65
2022/04/01 04:59:49;;;;;;;;;1.00;1.00;;;;;7.27;54.62;99774.69;2103383;28;48596;-63
2022/04/01 05:00:57;;;;;;;;;1.00;1.00;;;;;7.24;54.90;99778.25;2100707;27;47855;-62